createdAt,value
2019-02-07T00:00:56.280Z,65.99
2019-02-07T00:03:28.627Z,66.01
2019-02-07T00:06:01.028Z,66.24
2019-02-07T00:08:33.535Z,66.05
2019-02-07T00:11:05.865Z,66.13
2019-02-07T00:13:38.494Z,66.08
2019-02-07T00:16:11.869Z,66.02
2019-02-07T00:18:44.560Z,66.08
2019-02-07T00:21:16.768Z,66.18
2019-02-07T00:23:49.168Z,66.04
2019-02-07T00:26:21.518Z,65.85
2019-02-07T00:28:53.843Z,65.89
2019-02-07T00:31:26.225Z,65.86
2019-02-07T00:33:58.456Z,65.90
2019-02-07T00:36:30.774Z,65.95
2019-02-07T00:39:03.327Z,65.90
2019-02-07T00:41:37.243Z,66.01
2019-02-07T00:44:09.603Z,66.24
2019-02-07T00:46:41.908Z,66.24
2019-02-07T00:49:14.231Z,66.35
2019-02-07T00:51:46.503Z,66.31
2019-02-07T00:54:19.110Z,66.58
2019-02-07T00:56:51.389Z,66.53
2019-02-07T00:59:23.760Z,66.17
2019-02-07T01:01:56.132Z,66.09
2019-02-07T01:04:28.517Z,66.35
2019-02-07T01:07:00.803Z,66.12
2019-02-07T01:09:33.200Z,66.09
2019-02-07T01:12:05.884Z,66.09
2019-02-07T01:14:38.334Z,65.90
2019-02-07T01:17:10.762Z,66.02
2019-02-07T01:19:43.055Z,65.79
2019-02-07T01:22:15.290Z,65.98
2019-02-07T01:24:47.629Z,65.89
2019-02-07T01:27:19.976Z,65.97
2019-02-07T01:29:52.578Z,66.45
2019-02-07T01:32:24.850Z,65.99
2019-02-07T01:34:57.129Z,65.88
2019-02-07T01:37:29.676Z,65.92
2019-02-07T01:40:02.022Z,66.27
2019-02-07T01:42:34.760Z,66.66
2019-02-07T01:45:12.997Z,66.82
2019-02-07T01:47:42.682Z,66.91
2019-02-07T01:50:17.539Z,67.10
2019-02-07T01:52:49.866Z,66.99
2019-02-07T01:55:23.786Z,66.89
2019-02-07T01:57:56.068Z,66.90
2019-02-07T02:00:28.598Z,67.14
2019-02-07T02:03:01.161Z,67.26
2019-02-07T02:05:33.721Z,67.38
2019-02-07T02:08:06.270Z,66.71
2019-02-07T02:10:38.543Z,66.90
2019-02-07T02:13:10.787Z,66.98
2019-02-07T02:15:43.194Z,67.03
2019-02-07T02:18:15.427Z,67.00
2019-02-07T02:20:47.683Z,66.96
2019-02-07T02:23:20.058Z,66.80
2019-02-07T02:25:52.306Z,66.71
2019-02-07T02:28:24.800Z,66.47
2019-02-07T02:30:57.448Z,66.52
2019-02-07T02:33:30.695Z,66.73
2019-02-07T02:36:02.919Z,66.30
2019-02-07T02:38:35.178Z,66.42
2019-02-07T02:41:07.894Z,66.66
2019-02-07T02:43:40.254Z,66.51
2019-02-07T02:46:12.491Z,66.48
2019-02-07T02:48:44.953Z,66.51
2019-02-07T02:51:17.208Z,66.59
2019-02-07T02:53:51.141Z,66.33
2019-02-07T02:56:23.346Z,66.34
2019-02-07T02:58:55.640Z,65.94
2019-02-07T03:01:40.788Z,66.40
2019-02-07T03:04:25.334Z,66.23
2019-02-07T03:07:31.984Z,66.04
2019-02-07T03:10:17.099Z,65.89
2019-02-07T03:13:23.648Z,66.08
2019-02-07T03:16:23.988Z,65.76
2019-02-07T03:19:06.943Z,66.51
2019-02-07T03:21:48.956Z,66.12
2019-02-07T03:24:38.968Z,65.94
2019-02-07T03:27:31.671Z,66.06
2019-02-07T03:30:32.760Z,66.35
2019-02-07T03:33:30.449Z,66.29
2019-02-07T03:36:16.466Z,66.07
2019-02-07T03:39:10.490Z,66.35
2019-02-07T03:42:04.850Z,66.25
2019-02-07T03:44:56.171Z,66.55
2019-02-07T03:47:47.112Z,66.67
2019-02-07T03:50:43.208Z,66.62
2019-02-07T03:53:37.410Z,66.59
2019-02-07T03:56:28.542Z,66.96
2019-02-07T03:59:19.725Z,67.72
2019-02-07T04:02:14.065Z,67.84
2019-02-07T04:05:03.926Z,67.55
2019-02-07T04:07:53.679Z,67.49
2019-02-07T04:10:50.998Z,67.59
2019-02-07T04:13:42.121Z,67.49
2019-02-07T04:16:39.306Z,67.75
2019-02-07T04:19:39.793Z,67.82
2019-02-07T04:22:31.336Z,67.92
2019-02-07T04:25:31.366Z,68.00
2019-02-07T04:28:18.572Z,68.08
2019-02-07T04:31:09.070Z,67.82
2019-02-07T04:33:58.980Z,67.88
2019-02-07T04:36:50.788Z,67.71
2019-02-07T04:39:51.009Z,67.66
2019-02-07T04:42:35.049Z,67.57
2019-02-07T04:45:20.758Z,67.70
2019-02-07T04:48:11.926Z,67.78
2019-02-07T04:51:15.271Z,67.55
2019-02-07T04:54:04.987Z,67.56
2019-02-07T04:57:02.146Z,67.36
2019-02-07T04:59:56.233Z,67.14
2019-02-07T05:02:46.248Z,67.08
2019-02-07T05:05:37.484Z,67.03
2019-02-07T05:08:29.900Z,66.90
2019-02-07T05:11:21.994Z,67.00
2019-02-07T05:14:19.182Z,66.68
2019-02-07T05:17:16.487Z,66.69
2019-02-07T05:20:25.954Z,66.52
2019-02-07T05:23:17.490Z,66.33
2019-02-07T05:26:08.448Z,66.25
2019-02-07T05:28:51.411Z,66.30
2019-02-07T05:31:32.869Z,66.33
2019-02-07T05:34:30.039Z,66.31
2019-02-07T05:37:24.154Z,66.32
2019-02-07T05:40:07.025Z,66.32
2019-02-07T05:42:58.054Z,66.70
2019-02-07T05:45:44.867Z,66.78
2019-02-07T05:48:39.746Z,66.57
2019-02-07T05:51:44.487Z,66.95
2019-02-07T05:54:42.014Z,67.15
2019-02-07T05:57:50.744Z,67.06
2019-02-07T06:01:22.454Z,67.29
2019-02-07T06:03:49.876Z,67.21
2019-02-07T06:06:32.640Z,67.10
2019-02-07T06:09:23.059Z,67.06
2019-02-07T06:12:07.203Z,66.93
2019-02-07T06:14:57.321Z,66.93
2019-02-07T06:17:48.608Z,67.38
2019-02-07T06:20:54.399Z,67.46
2019-02-07T06:23:49.515Z,67.17
2019-02-07T06:26:44.666Z,66.67
2019-02-07T06:29:43.778Z,66.88
2019-02-07T06:32:45.302Z,67.02
2019-02-07T06:35:43.643Z,67.20
2019-02-07T06:38:38.246Z,67.20
2019-02-07T06:41:28.598Z,67.71
2019-02-07T06:44:18.984Z,68.01
2019-02-07T06:47:13.609Z,67.69
2019-02-07T06:49:54.255Z,67.28
2019-02-07T06:52:56.239Z,67.01
2019-02-07T06:55:37.690Z,67.00
2019-02-07T06:58:47.247Z,67.03
2019-02-07T07:01:41.317Z,67.64
2019-02-07T07:04:32.518Z,67.52
2019-02-07T07:07:17.330Z,67.51
2019-02-07T07:10:07.256Z,68.85
2019-02-07T07:13:07.752Z,68.91
2019-02-07T07:15:53.421Z,68.54
2019-02-07T07:18:54.402Z,67.93
2019-02-07T07:21:56.157Z,67.77
2019-02-07T07:24:50.258Z,67.37
2019-02-07T07:27:42.523Z,67.05
2019-02-07T07:30:33.718Z,66.66
2019-02-07T07:33:43.561Z,66.67
2019-02-07T07:36:27.138Z,66.15
2019-02-07T07:39:24.119Z,65.88
2019-02-07T07:42:21.293Z,65.83
2019-02-07T07:45:12.753Z,65.71
2019-02-07T07:48:10.296Z,65.52
2019-02-07T07:51:04.607Z,65.51
2019-02-07T07:53:55.851Z,65.34
2019-02-07T07:56:45.655Z,64.84
2019-02-07T07:59:38.735Z,63.79
2019-02-07T08:02:20.934Z,63.47
2019-02-07T08:05:12.124Z,63.68
2019-02-07T08:08:01.849Z,63.61
2019-02-07T08:11:07.019Z,63.39
2019-02-07T08:13:56.994Z,62.70
2019-02-07T08:16:47.163Z,62.23
2019-02-07T08:19:37.217Z,61.96
2019-02-07T08:22:20.021Z,61.71
2019-02-07T08:25:10.003Z,61.62
2019-02-07T08:28:19.842Z,60.75
2019-02-07T08:31:06.606Z,60.49
2019-02-07T08:34:07.482Z,59.90
2019-02-07T08:37:04.767Z,58.64
2019-02-07T08:39:45.381Z,58.18
2019-02-07T08:42:39.626Z,57.15
2019-02-07T08:45:22.137Z,56.46
2019-02-07T08:48:31.346Z,55.04
2019-02-07T08:51:22.481Z,52.90
2019-02-07T08:54:16.863Z,50.78
2019-02-07T08:57:11.307Z,49.54
2019-02-07T09:00:02.499Z,48.58
2019-02-07T09:02:52.148Z,47.09
2019-02-07T09:05:42.534Z,47.20
2019-02-07T09:08:33.697Z,45.86
2019-02-07T09:11:23.953Z,44.03
2019-02-07T09:14:17.888Z,42.69
2019-02-07T09:16:58.121Z,40.77
2019-02-07T09:19:55.492Z,39.93
2019-02-07T09:22:47.880Z,40.55
2019-02-07T09:25:42.869Z,40.61
2019-02-07T09:28:34.233Z,39.66
2019-02-07T09:31:24.076Z,38.23
2019-02-07T09:34:14.269Z,37.85
2019-02-07T09:37:04.210Z,37.61
2019-02-07T09:40:04.277Z,37.15
2019-02-07T09:42:58.260Z,36.34
2019-02-07T09:45:53.803Z,35.42
2019-02-07T09:48:43.814Z,35.53
2019-02-07T09:51:33.872Z,35.53
2019-02-07T09:54:43.836Z,36.27
2019-02-07T09:57:44.010Z,35.85
2019-02-07T10:00:45.361Z,35.57
2019-02-07T10:03:36.159Z,36.32
2019-02-07T10:06:24.849Z,36.19
2019-02-07T10:09:15.527Z,35.68
2019-02-07T10:12:10.004Z,35.66
2019-02-07T10:15:01.264Z,34.64
2019-02-07T10:17:47.938Z,33.34
2019-02-07T10:20:39.082Z,34.07
2019-02-07T10:23:36.236Z,33.79
2019-02-07T10:26:26.195Z,33.13
2019-02-07T10:29:17.381Z,33.37
2019-02-07T10:32:09.605Z,32.84
2019-02-07T10:34:59.860Z,32.61
2019-02-07T10:37:54.116Z,32.11
2019-02-07T10:40:37.918Z,32.62
2019-02-07T10:43:28.506Z,32.22
2019-02-07T10:46:28.670Z,32.78
2019-02-07T10:49:29.026Z,32.02
2019-02-07T10:52:20.148Z,31.61
2019-02-07T10:55:10.224Z,31.04
2019-02-07T10:58:00.148Z,32.68
2019-02-07T11:00:51.459Z,33.04
2019-02-07T11:03:50.650Z,35.34
2019-02-07T11:06:40.388Z,36.93
2019-02-07T11:09:36.455Z,38.72
2019-02-07T11:12:23.576Z,38.25
2019-02-07T11:15:15.250Z,38.42
2019-02-07T11:18:05.501Z,38.57
2019-02-07T11:20:55.498Z,38.44
2019-02-07T11:23:45.629Z,39.18
2019-02-07T11:26:33.878Z,39.26
2019-02-07T11:29:31.443Z,39.87
2019-02-07T11:32:21.408Z,40.20
2019-02-07T11:35:11.900Z,40.98
2019-02-07T11:38:02.741Z,40.94
2019-02-07T11:41:09.348Z,40.67
2019-02-07T11:43:50.800Z,40.79
2019-02-07T11:46:48.895Z,41.19
2019-02-07T11:49:56.260Z,40.82
2019-02-07T11:52:39.628Z,40.98
2019-02-07T11:55:40.146Z,41.07
2019-02-07T11:58:29.886Z,39.86
2019-02-07T12:01:39.065Z,39.10
2019-02-07T12:04:31.018Z,38.87
2019-02-07T12:07:21.035Z,38.65
2019-02-07T12:10:12.192Z,38.04
2019-02-07T12:13:00.413Z,37.83
2019-02-07T12:15:53.762Z,36.77
2019-02-07T12:18:43.304Z,36.61
2019-02-07T12:21:34.498Z,37.02
2019-02-07T12:24:24.491Z,36.90
2019-02-07T12:27:15.702Z,37.48
2019-02-07T12:30:10.156Z,37.21
2019-02-07T12:33:04.264Z,37.50
2019-02-07T12:35:45.732Z,37.34
2019-02-07T12:38:29.463Z,37.63
2019-02-07T12:41:20.639Z,37.74
2019-02-07T12:44:27.541Z,37.47
2019-02-07T12:47:31.623Z,37.41
2019-02-07T12:50:22.920Z,36.89
2019-02-07T12:53:08.577Z,37.37
2019-02-07T12:56:05.849Z,38.70
2019-02-07T12:58:55.859Z,37.13
2019-02-07T13:01:45.944Z,36.91
2019-02-07T13:04:36.055Z,37.99
2019-02-07T13:07:39.708Z,37.37
2019-02-07T13:10:31.344Z,37.95
2019-02-07T13:13:21.396Z,38.19
2019-02-07T13:16:15.520Z,38.81
2019-02-07T13:19:15.365Z,38.60
2019-02-07T13:22:15.556Z,38.18
2019-02-07T13:25:16.348Z,38.50
2019-02-07T13:28:16.945Z,38.66
2019-02-07T13:31:17.219Z,38.53
2019-02-07T13:34:08.500Z,37.90
2019-02-07T13:37:05.914Z,38.24
2019-02-07T13:40:15.644Z,38.38
2019-02-07T13:43:09.931Z,38.67
2019-02-07T13:46:10.052Z,39.21
2019-02-07T13:49:01.301Z,39.17
2019-02-07T13:51:54.414Z,39.03
2019-02-07T13:54:44.585Z,38.25
2019-02-07T13:57:44.881Z,38.55
2019-02-07T14:00:46.633Z,38.74
2019-02-07T14:03:56.090Z,38.83
2019-02-07T14:06:50.356Z,39.36
2019-02-07T14:10:00.010Z,39.79
2019-02-07T14:12:56.526Z,39.72
2019-02-07T14:15:50.644Z,39.94
2019-02-07T14:18:37.956Z,39.92
2019-02-07T14:21:26.886Z,40.35
2019-02-07T14:24:21.238Z,40.02
2019-02-07T14:27:27.883Z,40.49
2019-02-07T14:30:19.115Z,41.43
2019-02-07T14:33:13.130Z,41.93
2019-02-07T14:36:10.141Z,41.51
2019-02-07T14:39:04.478Z,41.53
2019-02-07T14:42:03.172Z,41.82
2019-02-07T14:44:51.478Z,42.16
2019-02-07T14:47:23.905Z,42.37
2019-02-07T14:49:56.280Z,42.69
2019-02-07T14:52:28.601Z,42.72
2019-02-07T14:55:00.943Z,42.86
2019-02-07T14:57:33.598Z,42.69
2019-02-07T15:00:10.031Z,42.91
2019-02-07T15:02:42.677Z,42.98
2019-02-07T15:05:15.395Z,43.50
2019-02-07T15:07:47.990Z,43.59
2019-02-07T15:10:21.229Z,44.11
2019-02-07T15:12:53.667Z,44.23
2019-02-07T15:15:26.196Z,44.78
2019-02-07T15:17:58.463Z,44.92
2019-02-07T15:20:30.820Z,45.22
2019-02-07T15:23:03.382Z,45.49
2019-02-07T15:25:36.682Z,45.78
2019-02-07T15:28:09.073Z,45.76
2019-02-07T15:30:41.535Z,45.94
2019-02-07T15:33:13.813Z,45.96
2019-02-07T15:35:49.233Z,46.29
2019-02-07T15:38:21.824Z,46.89
2019-02-07T15:40:54.659Z,47.21
2019-02-07T15:43:27.029Z,47.33
2019-02-07T15:46:00.845Z,47.57
2019-02-07T15:48:33.247Z,47.91
2019-02-07T15:51:06.470Z,47.92
2019-02-07T15:53:38.915Z,48.24
2019-02-07T15:56:11.166Z,48.53
2019-02-07T15:59:06.156Z,48.52
2019-02-07T16:01:42.822Z,48.87
2019-02-07T16:04:21.232Z,49.15
2019-02-07T16:06:53.563Z,49.79
2019-02-07T16:09:25.809Z,50.26
2019-02-07T16:11:58.142Z,50.35
2019-02-07T16:14:34.703Z,50.33
2019-02-07T16:17:07.177Z,50.55
2019-02-07T16:19:42.596Z,50.68
2019-02-07T16:22:15.115Z,50.76
2019-02-07T16:24:47.745Z,50.98
2019-02-07T16:27:23.045Z,50.91
2019-02-07T16:29:55.275Z,50.81
2019-02-07T16:32:28.115Z,50.41
2019-02-07T16:35:00.726Z,50.29
2019-02-07T16:37:33.249Z,50.39
2019-02-07T16:40:08.845Z,50.62
2019-02-07T16:42:44.184Z,50.69
2019-02-07T16:45:19.257Z,51.33
2019-02-07T16:47:51.895Z,51.64
2019-02-07T16:50:24.887Z,51.50
2019-02-07T16:53:01.575Z,51.62
2019-02-07T16:55:34.932Z,51.19
2019-02-07T16:58:07.337Z,51.44
2019-02-07T17:00:40.500Z,51.73
2019-02-07T17:03:12.843Z,51.85
2019-02-07T17:05:45.320Z,51.59
2019-02-07T17:08:17.712Z,51.56
2019-02-07T17:10:51.346Z,51.90
2019-02-07T17:13:24.021Z,51.80
2019-02-07T17:15:56.326Z,51.79
2019-02-07T17:18:28.764Z,51.96
2019-02-07T17:21:11.252Z,52.04
2019-02-07T17:23:37.064Z,52.08
2019-02-07T17:26:09.680Z,51.88
2019-02-07T17:28:42.196Z,52.25
2019-02-07T17:31:14.565Z,52.15
2019-02-07T17:33:47.050Z,52.45
2019-02-07T17:36:19.627Z,52.51
2019-02-07T17:38:51.849Z,52.56
2019-02-07T17:41:25.431Z,52.71
2019-02-07T17:43:58.006Z,53.03
2019-02-07T17:46:30.531Z,52.95
2019-02-07T17:49:06.274Z,53.26
2019-02-07T17:51:40.333Z,53.35
2019-02-07T17:54:18.757Z,53.74
2019-02-07T17:56:49.177Z,54.13
2019-02-07T17:59:22.113Z,53.91
2019-02-07T18:01:55.473Z,53.80
2019-02-07T18:04:28.626Z,53.50
2019-02-07T18:07:02.516Z,53.48
2019-02-07T18:09:35.876Z,53.63
2019-02-07T18:12:10.298Z,53.34
2019-02-07T18:14:52.202Z,53.51
2019-02-07T18:17:27.533Z,53.72
2019-02-07T18:20:02.608Z,53.55
2019-02-07T18:22:41.682Z,53.71
2019-02-07T18:25:23.424Z,53.83
2019-02-07T18:27:58.813Z,53.80
2019-02-07T18:30:32.321Z,53.60
2019-02-07T18:33:05.076Z,53.62
2019-02-07T18:35:43.488Z,53.54
2019-02-07T18:38:15.987Z,53.69
2019-02-07T18:40:48.533Z,54.20
2019-02-07T18:43:21.110Z,54.57
2019-02-07T18:45:53.349Z,55.09
2019-02-07T18:48:25.825Z,55.22
2019-02-07T18:50:58.176Z,55.34
2019-02-07T18:53:30.755Z,55.21
2019-02-07T18:56:03.251Z,55.21
2019-02-07T18:58:37.118Z,55.42
2019-02-07T19:01:11.954Z,55.47
2019-02-07T19:03:44.275Z,55.30
2019-02-07T19:06:16.581Z,55.50
2019-02-07T19:08:51.905Z,55.07
2019-02-07T19:11:24.276Z,55.34
2019-02-07T19:13:58.076Z,55.66
2019-02-07T19:16:30.691Z,56.13
2019-02-07T19:19:03.617Z,57.13
2019-02-07T19:21:43.646Z,57.54
2019-02-07T19:24:16.229Z,57.52
2019-02-07T19:26:48.603Z,58.42
2019-02-07T19:29:21.051Z,59.27
2019-02-07T19:31:53.683Z,59.69
2019-02-07T19:34:26.946Z,60.70
2019-02-07T19:37:00.391Z,61.21
2019-02-07T19:39:33.545Z,61.72
2019-02-07T19:42:06.170Z,62.36
2019-02-07T19:44:38.684Z,62.70
2019-02-07T19:47:11.093Z,63.55
2019-02-07T19:49:43.601Z,64.21
2019-02-07T19:52:16.212Z,64.87
2019-02-07T19:54:49.068Z,65.14
2019-02-07T19:57:21.750Z,65.91
2019-02-07T19:59:57.886Z,65.75
2019-02-07T20:02:30.471Z,66.70
2019-02-07T20:05:02.988Z,67.40
2019-02-07T20:07:35.525Z,68.17
2019-02-07T20:10:11.121Z,68.34
2019-02-07T20:12:43.863Z,69.40
2019-02-07T20:15:20.910Z,70.03
2019-02-07T20:17:53.298Z,70.58
2019-02-07T20:20:25.659Z,70.89
2019-02-07T20:22:57.970Z,71.40
2019-02-07T20:25:30.698Z,71.58
2019-02-07T20:28:03.484Z,72.27
2019-02-07T20:30:37.819Z,72.80
2019-02-07T20:33:11.515Z,72.74
2019-02-07T20:35:44.182Z,73.35
2019-02-07T20:38:16.684Z,73.35
2019-02-07T20:40:49.356Z,73.31
2019-02-07T20:43:21.906Z,73.39
2019-02-07T20:45:55.815Z,73.54
2019-02-07T20:48:28.128Z,73.60
2019-02-07T20:51:00.584Z,73.70
2019-02-07T20:53:34.828Z,73.90
2019-02-07T20:56:07.271Z,74.04
2019-02-07T20:58:39.685Z,74.34
2019-02-07T21:01:12.015Z,74.18
2019-02-07T21:03:44.387Z,74.44
2019-02-07T21:06:17.017Z,74.44
2019-02-07T21:08:49.446Z,74.52
2019-02-07T21:11:21.791Z,74.71
2019-02-07T21:13:55.430Z,74.75
2019-02-07T21:16:28.280Z,74.91
2019-02-07T21:19:01.370Z,75.10
2019-02-07T21:21:33.701Z,75.19
2019-02-07T21:24:06.927Z,75.17
2019-02-07T21:26:39.452Z,75.24
2019-02-07T21:29:11.881Z,75.24
2019-02-07T21:31:44.447Z,74.99
2019-02-07T21:34:16.776Z,75.22
2019-02-07T21:36:49.115Z,75.06
2019-02-07T21:39:24.782Z,75.23
2019-02-07T21:41:59.345Z,75.02
2019-02-07T21:44:48.682Z,75.00
2019-02-07T21:47:27.654Z,75.13
2019-02-07T21:50:18.818Z,74.98
2019-02-07T21:53:16.376Z,74.94
2019-02-07T21:55:48.722Z,74.76
2019-02-07T21:58:21.291Z,74.68
2019-02-07T22:00:53.861Z,74.49
2019-02-07T22:03:26.446Z,74.33
2019-02-07T22:05:58.807Z,74.32
2019-02-07T22:08:32.222Z,74.19
2019-02-07T22:11:04.509Z,74.17
2019-02-07T22:13:36.847Z,74.32
2019-02-07T22:16:09.255Z,74.16
2019-02-07T22:18:45.779Z,73.94
2019-02-07T22:21:18.268Z,73.99
2019-02-07T22:23:50.640Z,74.02
2019-02-07T22:26:23.249Z,73.83
2019-02-07T22:28:55.527Z,73.75
2019-02-07T22:31:27.872Z,73.84
2019-02-07T22:34:00.320Z,73.79
2019-02-07T22:36:32.706Z,73.75
2019-02-07T22:39:08.605Z,73.78
2019-02-07T22:41:41.074Z,73.67
2019-02-07T22:44:13.381Z,73.46
2019-02-07T22:46:45.656Z,73.43
2019-02-07T22:49:18.027Z,73.33
2019-02-07T22:51:51.258Z,73.24
2019-02-07T22:54:23.520Z,73.36
2019-02-07T22:56:55.922Z,73.33
2019-02-07T22:59:28.240Z,73.38
2019-02-07T23:02:01.120Z,73.48
2019-02-07T23:04:33.469Z,73.34
2019-02-07T23:07:06.207Z,73.36
2019-02-07T23:09:38.918Z,73.20
2019-02-07T23:12:11.299Z,73.21
2019-02-07T23:14:43.753Z,73.17
2019-02-07T23:17:16.165Z,73.23
2019-02-07T23:19:48.528Z,73.12
2019-02-07T23:22:20.889Z,73.05
2019-02-07T23:24:53.209Z,72.99
2019-02-07T23:27:25.726Z,72.98
2019-02-07T23:29:58.118Z,73.07
2019-02-07T23:32:30.393Z,73.15
2019-02-07T23:35:02.795Z,73.14
2019-02-07T23:37:35.244Z,73.15
2019-02-07T23:40:15.499Z,73.31
2019-02-07T23:42:47.899Z,73.38
2019-02-07T23:45:20.753Z,73.52
2019-02-07T23:47:53.199Z,73.58
2019-02-07T23:50:25.651Z,73.65
2019-02-07T23:52:57.993Z,73.67
2019-02-07T23:55:30.275Z,73.68
2019-02-07T23:58:03.258Z,73.68
